createdAt,value
2023-04-16T00:00:12.754Z,9.18
2023-04-16T00:05:15.071Z,9.16
2023-04-16T00:10:16.690Z,9.18
2023-04-16T00:15:18.231Z,9.12
2023-04-16T00:20:20.485Z,9.02
2023-04-16T00:25:22.108Z,9.00
2023-04-16T00:30:23.736Z,8.95
2023-04-16T00:35:25.369Z,8.92
2023-04-16T00:40:30.180Z,8.95
2023-04-16T00:45:31.870Z,8.96
2023-04-16T00:50:34.500Z,8.92
2023-04-16T00:55:36.637Z,8.88
2023-04-16T01:00:38.221Z,8.92
2023-04-16T01:05:40.297Z,8.90
2023-04-16T01:10:42.047Z,8.89
2023-04-16T01:15:43.753Z,8.86
2023-04-16T01:20:46.408Z,8.81
2023-04-16T01:25:48.523Z,8.80
2023-04-16T01:30:50.195Z,8.73
2023-04-16T01:35:59.770Z,8.72
2023-04-16T01:41:01.907Z,8.70
2023-04-16T01:46:24.006Z,8.66
2023-04-16T01:51:25.642Z,8.56
2023-04-16T01:56:27.366Z,8.49
2023-04-16T02:01:29.561Z,8.39
2023-04-16T02:06:31.671Z,8.37
2023-04-16T02:11:33.238Z,8.39
2023-04-16T02:16:34.948Z,8.29
2023-04-16T02:21:46.343Z,8.24
2023-04-16T02:26:48.121Z,8.21
2023-04-16T02:31:52.880Z,8.20
2023-04-16T02:36:55.395Z,8.14
2023-04-16T02:41:57.956Z,8.02
2023-04-16T02:46:59.555Z,8.01
2023-04-16T02:52:01.668Z,8.04
2023-04-16T02:57:03.446Z,7.96
2023-04-16T03:02:05.113Z,7.86
2023-04-16T03:07:06.703Z,7.82
2023-04-16T03:12:08.426Z,7.76
2023-04-16T03:17:10.041Z,7.69
2023-04-16T03:22:11.822Z,7.67
2023-04-16T03:27:13.391Z,7.59
2023-04-16T03:32:15.028Z,7.60
2023-04-16T03:37:16.865Z,7.49
2023-04-16T03:42:18.683Z,7.45
2023-04-16T03:47:20.708Z,7.39
2023-04-16T03:52:23.918Z,7.48
2023-04-16T03:57:26.950Z,7.41
2023-04-16T04:02:32.831Z,7.35
2023-04-16T04:07:34.570Z,7.33
2023-04-16T04:12:36.223Z,7.32
2023-04-16T04:17:37.929Z,7.26
2023-04-16T04:22:39.602Z,7.23
2023-04-16T04:27:41.234Z,7.24
2023-04-16T04:32:43.286Z,7.28
2023-04-16T04:37:45.076Z,7.20
2023-04-16T04:42:50.554Z,7.24
2023-04-16T04:47:55.341Z,7.27
2023-04-16T04:52:57.311Z,7.26
2023-04-16T04:57:58.974Z,7.39
2023-04-16T05:03:06.216Z,7.40
2023-04-16T05:08:07.954Z,7.48
2023-04-16T05:13:09.542Z,7.57
2023-04-16T05:18:11.413Z,7.64
2023-04-16T05:23:13.038Z,7.63
2023-04-16T05:28:14.612Z,7.52
2023-04-16T05:33:16.161Z,7.59
2023-04-16T05:38:17.702Z,7.54
2023-04-16T05:43:19.342Z,7.61
2023-04-16T05:48:20.982Z,7.68
2023-04-16T05:53:23.611Z,7.76
2023-04-16T05:58:25.195Z,7.78
2023-04-16T06:03:27.450Z,7.75
2023-04-16T06:08:29.470Z,7.80
2023-04-16T06:13:31.270Z,7.98
2023-04-16T06:18:32.846Z,8.02
2023-04-16T06:23:34.461Z,8.05
2023-04-16T06:28:36.031Z,8.34
2023-04-16T06:33:37.617Z,8.40
2023-04-16T06:38:39.230Z,8.65
2023-04-16T06:43:41.106Z,8.47
2023-04-16T06:48:42.752Z,8.72
2023-04-16T06:53:44.379Z,8.74
2023-04-16T06:58:45.997Z,8.93
2023-04-16T07:03:47.800Z,9.17
2023-04-16T07:08:49.691Z,9.24
2023-04-16T07:13:51.278Z,9.29
2023-04-16T07:18:52.885Z,9.47
2023-04-16T07:23:55.151Z,9.63
2023-04-16T07:28:56.751Z,9.72
2023-04-16T07:33:58.534Z,9.92
2023-04-16T07:39:00.202Z,10.06
2023-04-16T07:44:01.866Z,10.18
2023-04-16T07:49:03.583Z,10.33
2023-04-16T07:54:05.370Z,10.33
2023-04-16T07:59:20.968Z,10.59
2023-04-16T08:04:25.741Z,10.63
2023-04-16T08:09:28.863Z,10.89
2023-04-16T08:14:30.855Z,10.91
2023-04-16T08:19:32.421Z,10.91
2023-04-16T08:24:34.287Z,11.01
2023-04-16T08:29:36.105Z,11.38
2023-04-16T08:34:37.958Z,11.49
2023-04-16T08:39:39.547Z,11.49
2023-04-16T08:44:49.204Z,11.89
2023-04-16T08:49:52.835Z,12.03
2023-04-16T08:55:12.206Z,12.10
2023-04-16T09:00:14.420Z,12.12
2023-04-16T09:05:21.666Z,12.24
2023-04-16T09:10:23.286Z,12.51
2023-04-16T09:15:28.103Z,12.61
2023-04-16T09:20:29.697Z,12.50
2023-04-16T09:25:34.951Z,12.83
2023-04-16T09:30:37.554Z,12.85
2023-04-16T09:35:49.659Z,12.81
2023-04-16T09:41:07.202Z,12.95
2023-04-16T09:46:12.147Z,13.03
2023-04-16T09:51:13.738Z,13.17
2023-04-16T09:56:15.397Z,13.02
2023-04-16T10:01:18.322Z,13.24
2023-04-16T10:06:22.190Z,13.32
2023-04-16T10:11:24.138Z,13.27
2023-04-16T10:16:26.085Z,13.61
2023-04-16T10:21:33.700Z,13.91
2023-04-16T10:26:36.247Z,13.68
2023-04-16T10:31:39.006Z,13.57
2023-04-16T10:36:40.638Z,13.99
2023-04-16T10:41:42.669Z,13.79
2023-04-16T10:46:50.825Z,13.89
2023-04-16T10:51:56.679Z,13.87
2023-04-16T10:57:00.788Z,14.11
2023-04-16T11:02:09.605Z,13.77
2023-04-16T11:07:11.536Z,13.85
2023-04-16T11:12:14.831Z,14.16
2023-04-16T11:17:16.931Z,14.09
2023-04-16T11:22:18.604Z,13.99
2023-04-16T11:27:20.251Z,14.29
2023-04-16T11:32:22.682Z,14.27
2023-04-16T11:37:34.208Z,14.31
2023-04-16T11:42:43.469Z,14.04
2023-04-16T11:47:53.321Z,14.50
2023-04-16T11:52:58.034Z,14.34
2023-04-16T11:58:12.321Z,14.38
2023-04-16T12:03:16.532Z,14.48
2023-04-16T12:08:30.916Z,14.56
2023-04-16T12:13:40.399Z,14.46
2023-04-16T12:18:59.662Z,14.75
2023-04-16T12:24:01.250Z,14.67
2023-04-16T12:29:22.862Z,14.69
2023-04-16T12:34:28.931Z,14.63
2023-04-16T12:39:47.592Z,14.67
2023-04-16T12:44:49.679Z,14.77
2023-04-16T12:49:51.289Z,14.48
2023-04-16T12:54:53.345Z,14.41
2023-04-16T12:59:58.320Z,14.68
2023-04-16T13:05:00.124Z,14.72
2023-04-16T13:10:02.053Z,14.78
2023-04-16T13:15:04.117Z,14.69
2023-04-16T13:20:06.184Z,14.73
2023-04-16T13:25:08.476Z,14.63
2023-04-16T13:30:10.615Z,14.81
2023-04-16T13:35:12.238Z,14.66
2023-04-16T13:40:13.936Z,14.61
2023-04-16T13:45:15.711Z,14.31
2023-04-16T13:50:17.514Z,14.48
2023-04-16T13:55:19.285Z,14.35
2023-04-16T14:00:20.957Z,14.17
2023-04-16T14:05:25.148Z,14.03
2023-04-16T14:10:28.138Z,14.03
2023-04-16T14:15:30.008Z,13.99
2023-04-16T14:20:31.691Z,13.73
2023-04-16T14:25:33.771Z,13.88
2023-04-16T14:30:35.370Z,13.54
2023-04-16T14:35:36.988Z,13.42
2023-04-16T14:40:38.573Z,13.54
2023-04-16T14:45:40.168Z,13.71
2023-04-16T14:50:44.144Z,13.63
2023-04-16T14:55:45.833Z,13.37
2023-04-16T15:00:47.428Z,13.19
2023-04-16T15:05:55.487Z,13.35
2023-04-16T15:10:57.365Z,13.11
2023-04-16T15:16:00.783Z,13.05
2023-04-16T15:21:02.401Z,13.05
2023-04-16T15:26:04.143Z,13.00
2023-04-16T15:31:05.815Z,12.95
2023-04-16T15:36:07.481Z,12.67
2023-04-16T15:41:10.736Z,12.75
2023-04-16T15:46:12.413Z,12.72
2023-04-16T15:51:14.064Z,12.85
2023-04-16T15:56:15.872Z,12.86
2023-04-16T16:01:17.926Z,12.79
2023-04-16T16:06:20.782Z,12.73
2023-04-16T16:11:22.417Z,12.60
2023-04-16T16:16:24.065Z,12.75
2023-04-16T16:21:26.242Z,12.72
2023-04-16T16:26:28.038Z,12.52
2023-04-16T16:31:29.664Z,12.52
2023-04-16T16:36:34.220Z,12.75
2023-04-16T16:41:41.773Z,12.47
2023-04-16T16:46:43.511Z,12.46
2023-04-16T16:51:46.186Z,12.27
2023-04-16T16:56:47.778Z,12.31
2023-04-16T17:01:49.357Z,12.17
2023-04-16T17:06:51.194Z,12.00
2023-04-16T17:11:52.850Z,12.13
2023-04-16T17:16:54.637Z,12.21
2023-04-16T17:21:56.444Z,12.32
2023-04-16T17:26:58.491Z,11.99
2023-04-16T17:32:00.238Z,12.03
2023-04-16T17:37:02.297Z,11.86
2023-04-16T17:42:04.045Z,11.75
2023-04-16T17:47:05.659Z,11.84
2023-04-16T17:52:07.277Z,11.77
2023-04-16T17:57:08.893Z,12.17
2023-04-16T18:02:10.607Z,12.08
2023-04-16T18:07:12.333Z,11.80
2023-04-16T18:12:13.886Z,11.76
2023-04-16T18:17:15.604Z,11.75
2023-04-16T18:22:17.156Z,11.95
2023-04-16T18:27:18.836Z,12.01
2023-04-16T18:32:20.619Z,12.06
2023-04-16T18:37:22.809Z,11.98
2023-04-16T18:42:24.536Z,12.06
2023-04-16T18:47:26.174Z,12.02
2023-04-16T18:52:27.857Z,11.52
2023-04-16T18:57:29.569Z,11.50
2023-04-16T19:02:31.335Z,11.40
2023-04-16T19:07:32.964Z,11.47
2023-04-16T19:12:34.526Z,11.43
2023-04-16T19:17:36.223Z,11.33
2023-04-16T19:22:38.354Z,11.29
2023-04-16T19:27:40.232Z,11.11
2023-04-16T19:32:41.947Z,11.15
2023-04-16T19:37:43.666Z,11.25
2023-04-16T19:42:45.404Z,11.13
2023-04-16T19:47:48.766Z,11.41
2023-04-16T19:52:50.378Z,11.58
2023-04-16T19:57:52.010Z,11.58
2023-04-16T20:02:53.694Z,11.67
2023-04-16T20:07:55.881Z,11.68
2023-04-16T20:12:57.457Z,11.51
2023-04-16T20:17:59.154Z,11.74
2023-04-16T20:23:00.805Z,11.38
2023-04-16T20:28:02.361Z,11.46
2023-04-16T20:33:04.703Z,11.29
2023-04-16T20:38:06.414Z,11.18
2023-04-16T20:43:10.251Z,11.24
2023-04-16T20:48:12.413Z,11.18
2023-04-16T20:53:14.056Z,11.24
2023-04-16T20:58:15.640Z,11.16
2023-04-16T21:03:17.524Z,11.02
2023-04-16T21:08:22.336Z,10.97
2023-04-16T21:13:23.931Z,10.96
2023-04-16T21:18:25.584Z,11.06
2023-04-16T21:23:27.238Z,10.79
2023-04-16T21:28:29.396Z,11.00
2023-04-16T21:33:31.085Z,10.78
2023-04-16T21:38:32.707Z,10.85
2023-04-16T21:43:34.389Z,10.81
2023-04-16T21:48:36.014Z,10.92
2023-04-16T21:53:39.014Z,10.81
2023-04-16T21:58:40.794Z,11.07
2023-04-16T22:03:42.452Z,11.01
2023-04-16T22:08:44.176Z,10.83
2023-04-16T22:13:47.523Z,10.80
2023-04-16T22:18:49.397Z,10.72
2023-04-16T22:23:50.989Z,10.71
2023-04-16T22:28:52.706Z,10.93
2023-04-16T22:33:54.336Z,10.78
2023-04-16T22:38:55.948Z,10.73
2023-04-16T22:43:57.519Z,10.55
2023-04-16T22:48:59.083Z,10.61
2023-04-16T22:54:00.825Z,10.71
2023-04-16T22:59:02.391Z,10.44
2023-04-16T23:04:04.093Z,10.54
2023-04-16T23:09:05.904Z,10.46
2023-04-16T23:14:08.327Z,10.44
2023-04-16T23:19:14.769Z,10.56
2023-04-16T23:24:17.120Z,10.52
2023-04-16T23:29:18.794Z,10.44
2023-04-16T23:34:20.405Z,10.56
2023-04-16T23:39:22.080Z,10.45
2023-04-16T23:44:23.708Z,10.56
2023-04-16T23:49:25.432Z,10.43
2023-04-16T23:54:27.029Z,10.60
2023-04-16T23:59:28.704Z,10.58
